createdAt,value
2022-10-17T00:01:33.650Z,9.60
2022-10-17T00:04:00.236Z,9.98
2022-10-17T00:06:26.870Z,9.45
2022-10-17T00:08:53.444Z,9.70
2022-10-17T00:11:23.107Z,9.20
2022-10-17T00:13:52.045Z,9.63
2022-10-17T00:16:34.277Z,8.82
2022-10-17T00:19:01.144Z,8.15
2022-10-17T00:21:27.753Z,8.32
2022-10-17T00:23:54.572Z,8.20
2022-10-17T00:26:21.357Z,8.38
2022-10-17T00:28:49.377Z,7.75
2022-10-17T00:31:17.987Z,8.23
2022-10-17T00:33:44.976Z,8.73
2022-10-17T00:36:17.966Z,7.75
2022-10-17T00:38:46.737Z,7.50
2022-10-17T00:41:21.684Z,7.90
2022-10-17T00:47:14.065Z,7.63
2022-10-17T00:49:40.897Z,7.25
2022-10-17T00:52:15.636Z,7.18
2022-10-17T00:54:52.209Z,7.10
2022-10-17T00:57:24.973Z,7.13
2022-10-17T00:59:56.016Z,7.60
2022-10-17T01:02:24.036Z,8.02
2022-10-17T01:04:55.016Z,8.30
2022-10-17T01:07:22.693Z,7.65
2022-10-17T01:09:50.170Z,7.68
2022-10-17T01:12:28.921Z,8.15
2022-10-17T01:15:17.633Z,8.32
2022-10-17T01:17:47.346Z,7.95
2022-10-17T01:20:22.637Z,7.88
2022-10-17T01:23:17.497Z,8.68
2022-10-17T01:26:16.466Z,8.32
2022-10-17T01:29:19.786Z,7.93
2022-10-17T01:32:00.287Z,7.80
2022-10-17T01:34:30.004Z,8.40
2022-10-17T01:37:02.779Z,7.90
2022-10-17T01:39:47.792Z,7.43
2022-10-17T01:42:48.348Z,7.57
2022-10-17T01:45:41.320Z,7.68
2022-10-17T01:48:14.419Z,7.47
2022-10-17T01:50:45.496Z,8.00
2022-10-17T01:53:18.233Z,7.15
2022-10-17T01:55:48.104Z,7.18
2022-10-17T01:58:25.537Z,7.75
2022-10-17T02:00:54.572Z,7.72
2022-10-17T02:03:21.934Z,6.90
2022-10-17T02:05:48.531Z,7.50
2022-10-17T02:08:26.203Z,7.57
2022-10-17T02:11:05.642Z,6.95
2022-10-17T02:13:42.655Z,7.30
2022-10-17T02:16:18.788Z,7.47
2022-10-17T02:19:02.320Z,7.65
2022-10-17T02:21:28.859Z,8.43
2022-10-17T02:24:06.604Z,8.88
2022-10-17T02:26:41.604Z,7.95
2022-10-17T02:29:17.752Z,9.15
2022-10-17T02:31:49.948Z,9.75
2022-10-17T02:36:48.830Z,9.43
2022-10-17T02:39:16.699Z,10.02
2022-10-17T02:41:44.921Z,8.77
2022-10-17T02:44:12.006Z,9.50
2022-10-17T02:46:41.344Z,9.20
2022-10-17T02:49:12.160Z,9.70
2022-10-17T02:52:01.228Z,9.38
2022-10-17T02:54:37.344Z,9.25
2022-10-17T02:57:25.446Z,9.02
2022-10-17T02:59:52.551Z,9.27
2022-10-17T03:02:19.142Z,9.25
2022-10-17T03:04:46.941Z,9.50
2022-10-17T03:07:25.394Z,10.70
2022-10-17T03:09:51.941Z,9.95
2022-10-17T03:12:18.559Z,9.50
2022-10-17T03:14:45.144Z,10.00
2022-10-17T03:17:11.841Z,9.88
2022-10-17T03:19:38.660Z,9.90
2022-10-17T03:22:05.272Z,10.13
2022-10-17T03:24:31.960Z,9.07
2022-10-17T03:27:21.139Z,9.57
2022-10-17T03:29:51.389Z,9.23
2022-10-17T03:32:18.238Z,8.55
2022-10-17T03:34:44.874Z,8.98
2022-10-17T03:37:11.507Z,8.35
2022-10-17T03:39:38.357Z,8.75
2022-10-17T03:42:05.883Z,8.25
2022-10-17T03:44:33.147Z,8.48
2022-10-17T03:46:59.815Z,8.15
2022-10-17T03:49:26.432Z,9.15
2022-10-17T03:51:53.155Z,8.70
2022-10-17T03:54:19.778Z,8.35
2022-10-17T03:56:47.714Z,9.13
2022-10-17T03:59:15.608Z,8.85
2022-10-17T04:01:43.210Z,8.60
2022-10-17T04:04:10.544Z,8.98
2022-10-17T04:06:42.917Z,8.90
2022-10-17T04:09:10.616Z,8.25
2022-10-17T04:11:37.360Z,8.57
2022-10-17T04:14:04.017Z,8.43
2022-10-17T04:16:30.577Z,8.35
2022-10-17T04:18:59.760Z,9.20
2022-10-17T04:21:28.708Z,8.75
2022-10-17T04:23:56.936Z,8.80
2022-10-17T04:26:23.844Z,9.07
2022-10-17T04:28:51.223Z,9.50
2022-10-17T04:31:18.668Z,8.82
2022-10-17T04:33:50.501Z,8.73
2022-10-17T04:36:19.463Z,9.45
2022-10-17T04:38:46.491Z,9.85
2022-10-17T04:41:15.968Z,10.30
2022-10-17T04:43:45.607Z,10.15
2022-10-17T04:46:16.659Z,9.68
2022-10-17T04:48:43.365Z,9.52
2022-10-17T04:51:16.567Z,10.23
2022-10-17T04:53:44.393Z,9.60
2022-10-17T04:56:17.153Z,8.55
2022-10-17T04:58:45.077Z,10.00
2022-10-17T05:01:15.258Z,10.05
2022-10-17T05:03:42.594Z,9.85
2022-10-17T05:06:12.360Z,10.20
2022-10-17T05:08:39.420Z,10.27
2022-10-17T05:11:15.037Z,10.48
2022-10-17T05:13:41.649Z,10.52
2022-10-17T05:16:08.293Z,9.80
2022-10-17T05:18:34.922Z,10.30
2022-10-17T05:21:03.689Z,10.40
2022-10-17T05:23:30.877Z,10.02
2022-10-17T05:25:57.602Z,10.45
2022-10-17T05:28:24.631Z,10.57
2022-10-17T05:30:51.665Z,8.95
2022-10-17T05:33:18.414Z,9.57
2022-10-17T05:35:45.131Z,11.68
2022-10-17T05:38:11.880Z,10.23
2022-10-17T05:40:39.596Z,9.45
2022-10-17T05:43:06.521Z,9.38
2022-10-17T05:45:33.216Z,9.18
2022-10-17T05:48:00.149Z,8.25
2022-10-17T05:50:26.751Z,9.00
2022-10-17T05:52:54.537Z,10.32
2022-10-17T05:55:21.483Z,9.63
2022-10-17T05:57:48.269Z,9.20
2022-10-17T06:00:14.954Z,9.25
2022-10-17T06:02:42.460Z,9.93
2022-10-17T06:05:09.304Z,9.73
2022-10-17T06:07:36.424Z,8.85
2022-10-17T06:10:04.383Z,9.60
2022-10-17T06:12:31.281Z,9.43
2022-10-17T06:14:59.004Z,9.27
2022-10-17T06:17:25.673Z,11.02
2022-10-17T06:19:52.322Z,9.85
2022-10-17T06:22:18.960Z,9.43
2022-10-17T06:24:45.593Z,9.55
2022-10-17T06:27:12.352Z,9.70
2022-10-17T06:29:39.284Z,9.77
2022-10-17T06:32:08.691Z,8.65
2022-10-17T06:34:37.884Z,9.07
2022-10-17T06:37:04.491Z,10.32
2022-10-17T06:39:34.036Z,9.45
2022-10-17T06:42:01.521Z,9.00
2022-10-17T06:44:32.035Z,10.20
2022-10-17T06:47:01.674Z,10.30
2022-10-17T06:49:28.796Z,9.52
2022-10-17T06:51:55.502Z,9.85
2022-10-17T06:54:22.196Z,10.30
2022-10-17T06:56:48.954Z,9.63
2022-10-17T06:59:16.121Z,8.55
2022-10-17T07:01:46.183Z,8.63
2022-10-17T07:04:14.134Z,7.88
2022-10-17T07:06:41.077Z,7.78
2022-10-17T07:09:07.795Z,8.50
2022-10-17T07:11:37.171Z,7.93
2022-10-17T07:14:03.956Z,7.43
2022-10-17T07:16:30.694Z,7.07
2022-10-17T07:19:07.520Z,7.97
2022-10-17T07:21:39.194Z,6.68
2022-10-17T07:24:16.391Z,5.93
2022-10-17T07:26:47.066Z,6.70
2022-10-17T07:29:24.497Z,5.20
2022-10-17T07:31:52.647Z,6.10
2022-10-17T07:34:19.609Z,5.47
2022-10-17T07:36:46.648Z,5.10
2022-10-17T07:39:13.519Z,4.93
2022-10-17T07:41:40.130Z,4.40
2022-10-17T07:44:07.510Z,4.93
2022-10-17T07:46:34.333Z,4.43
2022-10-17T07:49:10.571Z,4.43
2022-10-17T07:51:37.395Z,3.45
2022-10-17T07:54:06.231Z,3.50
2022-10-17T07:56:33.410Z,3.60
2022-10-17T07:59:02.557Z,4.28
2022-10-17T08:01:31.796Z,3.53
2022-10-17T08:03:58.766Z,3.30
2022-10-17T08:06:35.421Z,3.65
2022-10-17T08:09:02.133Z,3.47
2022-10-17T08:11:28.832Z,3.55
2022-10-17T08:13:56.200Z,3.13
2022-10-17T08:16:22.981Z,3.03
2022-10-17T08:19:02.592Z,3.20
2022-10-17T08:21:29.524Z,3.65
2022-10-17T08:23:56.140Z,3.00
2022-10-17T08:26:23.080Z,3.28
2022-10-17T08:28:49.996Z,3.78
2022-10-17T08:31:18.943Z,3.45
2022-10-17T08:33:46.833Z,2.90
2022-10-17T08:36:15.565Z,3.55
2022-10-17T08:38:43.674Z,3.00
2022-10-17T08:41:22.051Z,2.92
2022-10-17T08:43:57.326Z,3.55
2022-10-17T08:46:37.591Z,3.60
2022-10-17T08:49:13.801Z,3.00
2022-10-17T08:51:50.358Z,3.15
2022-10-17T08:54:22.335Z,3.08
2022-10-17T08:56:55.383Z,2.72
2022-10-17T08:59:28.969Z,3.08
2022-10-17T09:02:32.053Z,2.80
2022-10-17T09:05:16.648Z,3.05
2022-10-17T09:08:18.203Z,3.42
2022-10-17T09:11:06.998Z,2.80
2022-10-17T09:14:02.258Z,2.83
2022-10-17T09:17:04.624Z,2.70
2022-10-17T09:19:40.232Z,3.00
2022-10-17T09:22:16.175Z,2.75
2022-10-17T09:24:54.048Z,2.75
2022-10-17T09:27:30.738Z,3.17
2022-10-17T09:30:47.580Z,3.13
2022-10-17T09:33:35.379Z,2.85
2022-10-17T09:36:23.667Z,2.88
2022-10-17T09:38:56.172Z,3.20
2022-10-17T09:41:46.850Z,2.90
2022-10-17T09:44:19.106Z,2.80
2022-10-17T09:49:41.579Z,2.90
2022-10-17T09:52:15.693Z,2.90
2022-10-17T09:55:15.836Z,2.30
2022-10-17T09:58:13.970Z,2.80
2022-10-17T10:00:48.543Z,2.38
2022-10-17T10:03:19.286Z,2.35
2022-10-17T10:06:10.980Z,2.43
2022-10-17T10:09:09.389Z,2.70
2022-10-17T10:12:21.310Z,3.00
2022-10-17T10:14:52.181Z,2.50
2022-10-17T10:17:55.700Z,2.20
2022-10-17T10:20:33.283Z,2.20
2022-10-17T10:23:06.117Z,2.35
2022-10-17T10:25:33.798Z,2.45
2022-10-17T10:28:01.621Z,2.30
2022-10-17T10:30:34.862Z,2.38
2022-10-17T10:33:11.906Z,2.60
2022-10-17T10:35:41.806Z,2.05
2022-10-17T10:38:13.398Z,2.55
2022-10-17T10:43:48.615Z,2.20
2022-10-17T10:46:27.764Z,2.22
2022-10-17T10:49:01.163Z,2.60
2022-10-17T10:51:46.083Z,1.98
2022-10-17T10:54:27.215Z,2.28
2022-10-17T10:56:58.192Z,2.00
2022-10-17T10:59:31.844Z,2.60
2022-10-17T11:02:11.706Z,1.98
2022-10-17T11:04:56.035Z,2.30
2022-10-17T11:07:47.038Z,1.90
2022-10-17T11:10:26.357Z,2.20
2022-10-17T11:13:01.289Z,1.92
2022-10-17T11:15:45.198Z,2.25
2022-10-17T11:18:21.104Z,2.00
2022-10-17T11:20:59.074Z,1.67
2022-10-17T11:23:40.352Z,2.22
2022-10-17T11:26:13.599Z,1.88
2022-10-17T11:28:40.495Z,2.47
2022-10-17T11:31:15.380Z,2.28
2022-10-17T11:33:47.961Z,1.80
2022-10-17T11:36:16.914Z,2.30
2022-10-17T11:39:11.274Z,1.90
2022-10-17T11:41:41.408Z,2.33
2022-10-17T11:44:21.116Z,2.00
2022-10-17T11:46:54.646Z,2.17
2022-10-17T11:49:34.055Z,2.42
2022-10-17T11:52:55.297Z,2.47
2022-10-17T11:55:31.787Z,2.70
2022-10-17T11:58:23.143Z,2.45
2022-10-17T12:01:27.869Z,2.42
2022-10-17T12:04:07.005Z,2.70
2022-10-17T12:06:43.279Z,2.13
2022-10-17T12:09:21.922Z,2.63
2022-10-17T12:11:58.968Z,2.40
2022-10-17T12:14:34.785Z,2.50
2022-10-17T12:17:03.007Z,2.40
2022-10-17T12:19:40.083Z,2.30
2022-10-17T12:22:23.585Z,2.38
2022-10-17T12:25:01.827Z,2.55
2022-10-17T12:27:47.944Z,2.58
2022-10-17T12:30:26.449Z,1.83
2022-10-17T12:33:11.886Z,1.80
2022-10-17T12:35:42.324Z,2.17
2022-10-17T12:38:15.474Z,2.17
2022-10-17T12:40:46.294Z,1.80
2022-10-17T12:43:15.437Z,2.60
2022-10-17T12:45:53.303Z,2.08
2022-10-17T12:48:38.427Z,2.22
2022-10-17T12:51:34.357Z,2.10
2022-10-17T12:54:17.844Z,1.83
2022-10-17T12:56:49.757Z,2.55
2022-10-17T12:59:24.320Z,1.90
2022-10-17T13:01:56.378Z,2.72
2022-10-17T13:04:24.100Z,2.45
2022-10-17T13:06:58.788Z,1.90
2022-10-17T13:09:42.665Z,1.98
2022-10-17T13:12:23.426Z,1.90
2022-10-17T13:15:08.200Z,1.97
2022-10-17T13:17:35.223Z,1.67
2022-10-17T13:20:02.094Z,1.70
2022-10-17T13:22:32.061Z,1.48
2022-10-17T13:25:17.963Z,1.50
2022-10-17T13:27:48.746Z,2.10
2022-10-17T13:30:38.049Z,1.63
2022-10-17T13:33:18.739Z,1.88
2022-10-17T13:38:42.684Z,1.65
2022-10-17T13:41:35.463Z,1.60
2022-10-17T13:44:10.285Z,1.80
2022-10-17T13:46:49.648Z,1.80
2022-10-17T13:49:42.670Z,2.20
2022-10-17T13:52:33.722Z,2.28
2022-10-17T13:55:15.390Z,2.25
2022-10-17T13:57:44.942Z,2.00
2022-10-17T14:00:23.712Z,1.77
2022-10-17T14:03:07.202Z,1.55
2022-10-17T14:06:02.330Z,1.85
2022-10-17T14:08:38.883Z,1.77
2022-10-17T14:11:43.089Z,1.92
2022-10-17T14:14:27.918Z,2.25
2022-10-17T14:17:00.192Z,2.25
2022-10-17T14:19:51.466Z,2.15
2022-10-17T14:22:40.714Z,2.40
2022-10-17T14:25:39.087Z,2.53
2022-10-17T14:28:20.360Z,2.40
2022-10-17T14:31:18.397Z,2.17
2022-10-17T14:33:53.237Z,2.22
2022-10-17T14:36:34.405Z,2.40
2022-10-17T14:39:14.208Z,2.38
2022-10-17T14:41:44.757Z,2.47
2022-10-17T14:44:38.594Z,2.20
2022-10-17T14:47:38.180Z,2.20
2022-10-17T14:50:32.396Z,2.00
2022-10-17T14:53:11.239Z,2.42
2022-10-17T14:55:40.128Z,2.15
2022-10-17T14:58:25.245Z,2.90
2022-10-17T15:00:51.796Z,2.90
2022-10-17T15:03:19.392Z,2.30
2022-10-17T15:05:50.448Z,3.13
2022-10-17T15:08:19.481Z,3.13
2022-10-17T15:10:47.577Z,2.97
2022-10-17T15:13:32.363Z,2.60
2022-10-17T15:16:01.495Z,2.65
2022-10-17T15:18:28.120Z,2.63
2022-10-17T15:21:04.614Z,2.28
2022-10-17T15:23:33.275Z,2.38
2022-10-17T15:26:00.199Z,2.17
2022-10-17T15:28:27.511Z,2.80
2022-10-17T15:30:54.155Z,2.60
2022-10-17T15:33:20.840Z,2.60
2022-10-17T15:35:47.977Z,2.35
2022-10-17T15:38:18.164Z,2.45
2022-10-17T15:40:46.013Z,2.45
2022-10-17T15:43:14.089Z,2.50
2022-10-17T15:45:43.997Z,2.38
2022-10-17T15:48:18.829Z,2.53
2022-10-17T15:50:45.686Z,2.92
2022-10-17T15:53:12.814Z,2.95
2022-10-17T15:55:39.624Z,2.70
2022-10-17T15:58:06.433Z,2.65
2022-10-17T16:00:33.044Z,2.53
2022-10-17T16:03:00.532Z,2.45
2022-10-17T16:05:27.256Z,2.85
2022-10-17T16:07:54.118Z,2.65
2022-10-17T16:10:22.287Z,2.47
2022-10-17T16:12:50.403Z,2.63
2022-10-17T16:15:28.098Z,2.55
2022-10-17T16:17:56.445Z,2.58
2022-10-17T16:20:24.962Z,2.50
2022-10-17T16:22:53.072Z,2.47
2022-10-17T16:25:24.288Z,2.53
2022-10-17T16:27:54.964Z,2.58
2022-10-17T16:30:24.243Z,2.60
2022-10-17T16:32:53.604Z,2.53
2022-10-17T16:35:26.293Z,2.30
2022-10-17T16:37:53.016Z,2.60
2022-10-17T16:40:19.976Z,2.88
2022-10-17T16:42:46.571Z,2.95
2022-10-17T16:45:21.861Z,2.58
2022-10-17T16:47:49.290Z,2.40
2022-10-17T16:50:16.330Z,2.60
2022-10-17T16:52:42.919Z,2.70
2022-10-17T16:55:10.078Z,2.80
2022-10-17T16:57:36.698Z,3.38
2022-10-17T17:00:05.156Z,3.63
2022-10-17T17:02:31.994Z,3.50
2022-10-17T17:04:58.812Z,3.58
2022-10-17T17:07:25.428Z,5.32
2022-10-17T17:09:53.705Z,4.32
2022-10-17T17:12:20.371Z,3.38
2022-10-17T17:14:46.966Z,3.25
2022-10-17T17:17:19.711Z,3.10
2022-10-17T17:20:00.241Z,2.88
2022-10-17T17:22:26.811Z,3.58
2022-10-17T17:24:53.426Z,3.10
2022-10-17T17:27:21.565Z,3.67
2022-10-17T17:29:48.144Z,3.20
2022-10-17T17:32:14.835Z,3.47
2022-10-17T17:34:41.507Z,3.28
2022-10-17T17:37:08.110Z,3.42
2022-10-17T17:39:34.834Z,3.03
2022-10-17T17:42:01.421Z,3.15
2022-10-17T17:44:28.030Z,3.88
2022-10-17T17:46:54.680Z,3.47
2022-10-17T17:49:21.363Z,3.55
2022-10-17T17:51:47.986Z,3.78
2022-10-17T17:54:14.707Z,3.60
2022-10-17T17:56:41.585Z,3.83
2022-10-17T17:59:09.756Z,3.42
2022-10-17T18:01:39.448Z,3.78
2022-10-17T18:04:08.766Z,3.55
2022-10-17T18:06:37.113Z,3.92
2022-10-17T18:09:04.599Z,3.85
2022-10-17T18:11:31.706Z,3.95
2022-10-17T18:14:01.110Z,4.22
2022-10-17T18:16:29.238Z,4.13
2022-10-17T18:18:56.081Z,4.25
2022-10-17T18:21:22.750Z,4.40
2022-10-17T18:23:50.335Z,4.07
2022-10-17T18:26:17.591Z,4.18
2022-10-17T18:28:44.945Z,4.43
2022-10-17T18:31:19.500Z,3.97
2022-10-17T18:33:46.608Z,3.58
2022-10-17T18:36:49.796Z,4.35
2022-10-17T18:39:16.386Z,4.20
2022-10-17T18:41:42.982Z,4.25
2022-10-17T18:44:09.868Z,4.50
2022-10-17T18:46:40.708Z,4.95
2022-10-17T18:49:11.640Z,4.43
2022-10-17T18:51:38.821Z,4.80
2022-10-17T18:54:07.435Z,5.43
2022-10-17T18:56:34.029Z,6.22
2022-10-17T18:59:01.244Z,5.80
2022-10-17T19:01:28.686Z,5.70
2022-10-17T19:03:58.018Z,6.60
2022-10-17T19:06:54.055Z,6.00
2022-10-17T19:09:20.752Z,5.65
2022-10-17T19:11:47.461Z,5.65
2022-10-17T19:14:14.263Z,5.10
2022-10-17T19:16:46.619Z,5.32
2022-10-17T19:19:19.526Z,6.18
2022-10-17T19:21:46.608Z,6.13
2022-10-17T19:24:17.280Z,5.75
2022-10-17T19:26:45.233Z,6.07
2022-10-17T19:29:15.959Z,6.03
2022-10-17T19:31:43.302Z,5.88
2022-10-17T19:34:11.709Z,5.95
2022-10-17T19:36:38.806Z,6.53
2022-10-17T19:39:08.606Z,6.75
2022-10-17T19:41:36.398Z,6.20
2022-10-17T19:44:03.637Z,6.22
2022-10-17T19:46:31.582Z,7.00
2022-10-17T19:48:58.428Z,7.63
2022-10-17T19:51:26.442Z,7.53
2022-10-17T19:53:54.866Z,7.22
2022-10-17T19:56:23.186Z,7.03
2022-10-17T19:58:51.371Z,6.85
2022-10-17T20:01:23.524Z,7.38
2022-10-17T20:06:17.433Z,7.30
2022-10-17T20:08:44.129Z,7.47
2022-10-17T20:11:18.989Z,7.63
2022-10-17T20:13:46.004Z,7.53
2022-10-17T20:16:21.410Z,8.52
2022-10-17T20:18:49.672Z,7.90
2022-10-17T20:21:19.744Z,8.13
2022-10-17T20:23:47.975Z,8.73
2022-10-17T20:26:33.234Z,7.60
2022-10-17T20:29:05.035Z,8.07
2022-10-17T20:31:31.683Z,9.55
2022-10-17T20:33:59.656Z,8.98
2022-10-17T20:36:26.943Z,9.57
2022-10-17T20:38:57.447Z,9.07
2022-10-17T20:41:25.722Z,8.55
2022-10-17T20:43:54.052Z,8.68
2022-10-17T20:46:35.888Z,8.75
2022-10-17T20:49:04.032Z,8.90
2022-10-17T20:51:30.918Z,8.85
2022-10-17T20:54:06.468Z,9.35
2022-10-17T20:56:39.652Z,9.20
2022-10-17T20:59:32.944Z,8.77
2022-10-17T21:02:12.906Z,9.00
2022-10-17T21:04:46.650Z,9.57
2022-10-17T21:07:21.898Z,9.20
2022-10-17T21:09:49.561Z,9.63
2022-10-17T21:12:53.201Z,8.98
2022-10-17T21:15:23.835Z,9.85
2022-10-17T21:18:00.235Z,9.18
2022-10-17T21:20:30.248Z,10.15
2022-10-17T21:25:40.811Z,9.52
2022-10-17T21:28:14.643Z,10.40
2022-10-17T21:30:53.281Z,10.52
2022-10-17T21:33:25.976Z,11.45
2022-10-17T21:35:56.833Z,10.77
2022-10-17T21:38:23.531Z,11.30
2022-10-17T21:40:51.529Z,11.32
2022-10-17T21:43:20.720Z,10.98
2022-10-17T21:45:49.391Z,10.45
2022-10-17T21:48:30.315Z,10.43
2022-10-17T21:51:15.241Z,9.85
2022-10-17T21:53:48.281Z,9.95
2022-10-17T21:56:24.290Z,10.00
2022-10-17T21:58:59.079Z,10.27
2022-10-17T22:01:41.990Z,9.70
2022-10-17T22:04:16.733Z,10.48
2022-10-17T22:06:51.687Z,9.55
2022-10-17T22:09:33.045Z,9.43
2022-10-17T22:12:34.831Z,10.55
2022-10-17T22:15:04.160Z,9.60
2022-10-17T22:17:40.038Z,10.50
2022-10-17T22:20:09.739Z,10.18
2022-10-17T22:22:37.274Z,10.88
2022-10-17T22:25:10.766Z,10.02
2022-10-17T22:27:37.482Z,11.63
2022-10-17T22:30:05.759Z,11.20
2022-10-17T22:32:34.598Z,10.48
2022-10-17T22:35:01.375Z,11.18
2022-10-17T22:37:28.251Z,10.23
2022-10-17T22:40:18.008Z,10.02
2022-10-17T22:42:48.666Z,10.82
2022-10-17T22:45:36.795Z,10.68
2022-10-17T22:48:03.841Z,11.68
2022-10-17T22:50:32.295Z,11.82
2022-10-17T22:53:04.673Z,10.13
2022-10-17T22:55:36.438Z,10.48
2022-10-17T22:58:19.381Z,10.52
2022-10-17T23:01:01.220Z,10.98
2022-10-17T23:03:33.551Z,11.93
2022-10-17T23:06:04.161Z,11.43
2022-10-17T23:08:34.829Z,10.00
2022-10-17T23:11:07.140Z,10.63
2022-10-17T23:13:34.863Z,10.85
2022-10-17T23:16:18.176Z,10.45
2022-10-17T23:18:45.732Z,10.95
2022-10-17T23:21:15.867Z,10.52
2022-10-17T23:23:50.244Z,12.02
2022-10-17T23:26:16.953Z,11.00
2022-10-17T23:28:43.946Z,11.77
2022-10-17T23:31:12.806Z,11.73
2022-10-17T23:33:41.469Z,11.50
2022-10-17T23:36:13.101Z,11.48
2022-10-17T23:38:52.605Z,11.15
2022-10-17T23:41:22.509Z,11.13
2022-10-17T23:43:59.381Z,11.05
2022-10-17T23:46:35.563Z,11.20
2022-10-17T23:49:09.604Z,10.77
2022-10-17T23:51:39.380Z,11.40
2022-10-17T23:54:18.712Z,11.07
2022-10-17T23:56:45.320Z,11.68
2022-10-17T23:59:11.990Z,12.15
